GMTAGMFK

Guest
Details From GMTA - CHERIF EL IDRISSI
To GMFK - MOULAY ALI CHERIF
Flight Number -
Tags generated
Created
Modified
Stats Distance 221 nm / 410 km
Max Altitude 26,800 ft / 8,169 m
Waypoints 4
Social Downloads 0
Likes 0
Share VATSIM

Download

Looking for another format? Having issues loading an existing format? Contact us
Advertisement - Login to hide

Notes

Basic altitude profile: - Ascent Rate: 2500ft/min - Ascent Speed: 250kts - Cruise Altitude: 35000ft - Cruise Speed: 420kts - Descent Rate: 1500ft/min - Descent Speed: 250kts Options: - Use NATs: no - Use PACOTS: no - Use low airways: no - Use high airways: no

Route

GMTA 3400N0500W 3300N0500W GMFK

ID Type Via Altitude Latitude Longitude Leg Dist Tot Dist Heading (true) Name
O GMTA APT - 0 ft / 0 m 35.17730˚ -3.83956˚ - 0 nm - CHERIF EL IDRISSI
3400N0500W LATLON - 26,800 ft / 8,169 m 34.00000˚ -5.00000˚ 91 nm 91 nm 219° / 219° -
3300N0500W LATLON - 14,000 ft / 4,267 m 33.00000˚ -5.00000˚ 60 nm 151 nm 180° / 180° -
O GMFK APT - 0 ft / 0 m 31.94825˚ -4.40096˚ 70 nm 221 nm 154° / 154° MOULAY ALI CHERIF

Altitude Profile

Advertisement - Login to hide

Weather


0- 5 10 15 20 25 30 35+ Temperature / ° C

Clouds and Precipitation
Forecast for 2017-12-18 00:00 UTC. Updated 24 minutes ago

Ground ~20,000 ft ~40,000 ft Winds

GMTA

Details ICAO GMTA (AHU)
Name CHERIF EL IDRISSI
Region Morocco
Timezone Africa/Casablanca (UTC+0.0)
Stats Elevation 95 ft / 29 m (AMSL)
Location 35.177296° -3.839555°
Runways 1
Magnetic Variation 0.694° W

METAR

GMTA 171900Z 12006KT CAVOK 14/07 Q1028 NOSIG

Decode

TAF

TAF GMTA 171700Z 1718/1824 02005KT CAVOK

Decode

Departure Runways

ID Width Length Bearing (true) Bearing (mag) Surface Threshold Offset Overrun Length
18 148 ft / 45 m 8,234 ft / 2,510 m 172.65° 173.34° Asphalt 0 ft / 0 m 0 ft / 0 m
36 148 ft / 45 m 8,234 ft / 2,510 m 352.65° 353.34° Asphalt 0 ft / 0 m 0 ft / 0 m

GMFK

Details ICAO GMFK (ERH)
Name MOULAY ALI CHERIF
Region Morocco
Timezone Africa/Casablanca (UTC+0.0)
Stats Elevation 3,428 ft / 1,045 m (AMSL)
Location 31.948252° -4.400956°
Runways 1
Magnetic Variation 0.923° W

METAR

GMFK 171900Z 11007KT 9999 SCT030 SCT080 11/04 Q1026 NOSIG

Decode

TAF

Not found

Destination Runways

ID Width Length Bearing (true) Bearing (mag) Surface Threshold Offset Overrun Length
13 148 ft / 45 m 10,576 ft / 3,224 m 125.08° 126.00° Asphalt 0 ft / 0 m 0 ft / 0 m
31 148 ft / 45 m 10,576 ft / 3,224 m 305.10° 306.02° Asphalt 0 ft / 0 m 0 ft / 0 m

Popular Alternatives